x

West Santa Barbara 38 Nm West Of Santa Barbara, Ca (46054) Wave Buoy

6:50pm - Thu 23rd Feb 2017 All times are PST. -8 hours from GMT.

  • Sig Wave height 10.2ft
  • Swell Direction
  • Peak Period 8s
  • Average Period 6s
  • Wind
    29mph, 36mph gusts
  • Sea Temp 56°f
  • 空気 Temp 53°f
  • Sea Pressure 1020.4mb
  • West Santa Barbara  38 Nm West Of Santa Barbara, Ca
  • West Santa Barbara  38 Nm West Of Santa Barbara, Ca

More Historic Weather Station data

Upgrade to MSW Pro to gain access to the past 30 days of data for over 8000 Wavebouys and Weather Stations around the globe.

Join Pro

Comparision Forecast

View Surf forecast
   
Thu 02/23 6:50pm 10ft 8s 6s 29 36 mph 1020.4mb 56f 53f
5:50pm 10ft 8s 6s 29 34 mph 1019.8mb 56f 53f
4:50pm 9.5ft 8s 6s 29 36 mph 1019.6mb 56f 53f
3:50pm 10ft 8s 6s 29 34 mph 1019.7mb 56f 53f
2:50pm 9.5ft 10s 7s 29 34 mph 1019.9mb 55f 52f
1:50pm 10ft 8s 7s 29 34 mph 1020.3mb 55f 52f
12:50pm 10ft 9s 7s 27 31 mph 1021mb 55f 52f
11:50am 9.5ft 9s 7s 27 31 mph 1021.5mb 55f 52f
10:50am 9ft 12s 7s 27 31 mph 1022mb 55f 51f
9:50am 9ft 14s 7s 20 25 mph 1022.4mb 55f 50f
8:50am 9ft 8s 7s 20 25 mph 1022.2mb 55f 50f
7:50am 10ft 11s 7s 22 25 mph 1021.8mb 55f 50f
6:50am 10.5ft 10s 8s 22 25 mph 1021.3mb 55f 50f
5:50am 11ft 13s 8s 25 31 mph 1021mb 55f 50f
4:50am 11ft 13s 8s 25 29 mph 1020.6mb 55f 50f
3:50am 11ft 8s 7s 27 31 mph 1020.1mb 55f 51f
2:50am 12ft 12s 7s 25 29 mph 1020.3mb 55f 51f
Wed 02/22 6:50pm 11ft 14s 7s 31 36 mph 1020.2mb 56f 54f
5:50pm 11.5ft 15s 7s 29 36 mph 1020.3mb 55f 54f
4:50pm 11ft 15s 7s 27 34 mph 1020.3mb 56f 55f
3:50pm 10ft 15s 7s 27 34 mph 1020.3mb 56f 55f
2:50pm 9.5ft 15s 7s 29 34 mph 1020.5mb 56f 55f
1:50pm 10ft 14s 7s 29 36 mph 1020.5mb 56f 55f
12:50pm 10ft 15s 8s 25 29 mph 1021mb 56f 55f
11:50am 10.5ft 15s 8s 27 31 mph 1021.8mb 56f 55f
10:50am 9.5ft 13s 9s 25 29 mph 1022.2mb 56f 54f
9:50am 10.5ft 15s 9s 18 22 mph 1022.3mb 55f 55f
8:50am 10ft 14s 9s 20 22 mph 1022.5mb 55f 55f
7:50am 10ft 14s 9s 20 25 mph 1022.2mb 55f 55f
6:50am 10.5ft 15s 9s 18 22 mph 1022.2mb 55f 55f
5:50am 10.5ft 16s 10s 20 22 mph 1022mb 55f 55f
4:50am 9.5ft 14s 9s 13 18 mph 1022.1mb 55f 56f
2:50am 8.5ft 13s 8s 16 18 mph 1022.7mb 55f 56f
1:50am 9.5ft 12s 9s 13 16 mph 1023mb 56f 56f
12:50am 9ft 12s 9s 13 16 mph 1023.8mb 56f 56f
Tue 02/21 11:50pm 9ft 12s 8s 11 13 mph 1024.3mb 56f 56f
10:50pm 9.5ft 11s 9s 7 9 mph 1024.8mb 56f 56f
9:50pm 8ft 11s 8s 4 7 mph 1024.8mb 56f 56f
8:50pm 9ft 12s 8s 2 7 mph 1024.8mb 56f 56f
7:50pm 8.5ft 11s 9s 2 4 mph 1024.4mb 56f 55f
6:50pm 9ft 11s 9s 2 4 mph 1024.1mb 57f 55f
5:50pm 9ft 11s 9s 4 7 mph 1024.1mb 57f 55f
4:50pm 9ft 11s 9s  -  2 mph 1024.2mb 57f 56f
3:50pm 9ft 11s 9s 2 4 mph 1024.5mb 57f 56f
2:50pm 9.5ft 12s 9s 7 9 mph 1024.6mb 57f 57f
1:50pm 9ft 11s 9s 2 4 mph 1024.9mb 56f 57f
12:50pm 8ft 13s 9s 2 4 mph 1025.5mb 56f 57f
11:50am 9ft 13s 9s 2
mph
1026mb 56f 57f
10:50am 8ft 12s 9s 4
mph
1026.5mb 56f 57f
9:50am 8ft 13s 9s 4
mph
1026.3mb 56f 57f
8:50am 7ft 13s 8s 4 7 mph 1026mb 56f 57f
7:50am 8.5ft 13s 9s 4 7 mph 1025.4mb 56f 57f
6:50am 9ft 14s 9s 7 9 mph 1024.9mb 56f 57f
5:50am 7.5ft 13s 8s 7 9 mph 1024.2mb 56f 57f
4:50am 8.5ft 12s 8s 9 13 mph 1024mb 56f 57f
3:50am 7.5ft 13s 8s 9 11 mph 1024.2mb 56f 57f
2:50am 8.5ft 13s 8s 11 13 mph 1024.5mb 56f 57f
1:50am 9ft 15s 8s 11 13 mph 1024.9mb 56f 57f
12:50am 10ft 15s 8s 13 16 mph 1025.1mb 56f 57f
Mon 02/20 11:50pm 10ft 15s 8s 16 18 mph 1024.7mb 56f 57f
10:50pm 9ft 13s 8s 13 16 mph 1024.6mb 56f 57f
9:50pm 10ft 15s 9s 11 16 mph 1024.8mb 55f 57f
8:50pm 9ft 11s 8s 11 16 mph 1024.6mb 55f 58f
7:50pm 11ft 15s 9s 18 22 mph 1023.4mb 55f 58f
6:50pm 9.5ft 16s 8s 13 16 mph 1023.6mb 55f 57f
5:50pm 9.5ft 15s 8s 16 22 mph 1023.3mb 56f 57f
4:50pm 10ft 16s 8s 18 25 mph 1022.5mb 56f 56f
3:50pm 9.5ft 16s 8s 16 20 mph 1023.2mb 56f 56f
2:50pm 10.5ft 16s 8s 16 20 mph 1022.5mb 56f 56f
1:50pm 9ft 16s 7s 20 25 mph 1022mb 55f 56f
12:50pm 10ft 16s 8s 22 29 mph 1021.7mb 55f 56f
11:50am 9.5ft 16s 7s 22 29 mph 1022.3mb 55f 55f
10:50am 9ft 16s 7s 22 27 mph 1022.7mb 55f 56f
9:50am 8ft 17s 7s 22 29 mph 1021.9mb 55f 56f
8:50am 8ft 13s 7s 22 27 mph 1021.5mb 55f 55f
7:50am 7.5ft 13s 7s 20 29 mph 1021mb 55f 55f
6:50am 8.5ft 13s 7s 20 27 mph 1020.3mb 55f 55f
5:50am 8.5ft 13s 7s 20 27 mph 1019.9mb 55f 55f
4:50am 8ft 10s 6s 22 29 mph 1019.5mb 55f 55f
3:50am 8.5ft 11s 6s 25 29 mph 1018.7mb 55f 54f